createdAt,value
2022-10-12T09:36:19.703Z,5.37
2022-10-12T09:41:29.711Z,5.75
2022-10-12T09:46:40.067Z,5.10
2022-10-12T09:51:42.478Z,5.03
2022-10-12T09:56:54.674Z,4.65
2022-10-12T10:02:11.546Z,5.60
2022-10-12T10:07:31.377Z,5.22
2022-10-12T10:12:34.857Z,4.80
2022-10-12T10:17:36.648Z,4.82
2022-10-12T10:22:47.914Z,4.10
2022-10-12T10:27:51.456Z,3.63
2022-10-12T10:33:17.670Z,2.90
2022-10-12T10:38:19.475Z,3.72
2022-10-12T10:43:31.791Z,3.30
2022-10-12T10:49:06.573Z,2.72
2022-10-12T10:54:23.976Z,3.58
2022-10-12T10:59:53.265Z,3.33
2022-10-12T11:05:20.320Z,3.75
2022-10-12T11:10:27.868Z,3.42
2022-10-12T11:15:50.199Z,3.40
2022-10-12T11:21:20.214Z,3.05
2022-10-12T11:26:37.979Z,3.07
2022-10-12T11:31:45.656Z,3.17
2022-10-12T11:37:14.816Z,2.85
2022-10-12T11:42:21.731Z,3.00
2022-10-12T11:47:36.125Z,3.45
2022-10-12T11:52:43.810Z,2.90
2022-10-12T11:57:47.324Z,3.13
2022-10-12T12:03:18.352Z,3.80
2022-10-12T12:08:44.187Z,4.63
2022-10-12T12:13:45.898Z,4.90
2022-10-12T12:19:25.137Z,4.32
2022-10-12T12:24:27.063Z,3.22
2022-10-12T12:29:31.928Z,3.45
2022-10-12T12:34:34.456Z,4.05
2022-10-12T12:39:36.818Z,4.03
2022-10-12T12:44:41.589Z,3.97
2022-10-12T12:49:50.264Z,4.13
2022-10-12T12:55:25.910Z,4.38
2022-10-12T13:00:39.152Z,4.68
2022-10-12T13:05:53.040Z,3.65
2022-10-12T13:11:01.072Z,3.55
2022-10-12T13:16:41.545Z,3.47
2022-10-12T13:21:47.143Z,3.38
2022-10-12T13:26:54.928Z,3.53
2022-10-12T13:32:02.668Z,3.28
2022-10-12T13:37:13.131Z,3.58
2022-10-12T13:42:30.800Z,3.60
2022-10-12T13:47:33.746Z,4.15
2022-10-12T13:52:36.234Z,3.08
2022-10-12T13:57:40.883Z,3.50
2022-10-12T14:02:53.341Z,3.55
2022-10-12T14:08:05.888Z,3.05
2022-10-12T14:13:13.105Z,3.30
2022-10-12T14:18:51.035Z,3.17
2022-10-12T14:23:54.179Z,2.67
2022-10-12T14:28:57.906Z,3.22
2022-10-12T14:34:26.330Z,3.47
2022-10-12T14:39:28.193Z,3.28
2022-10-12T14:44:41.524Z,2.80
2022-10-12T14:49:48.814Z,3.60
2022-10-12T14:59:57.921Z,2.78
2022-10-12T15:04:59.983Z,3.33
2022-10-12T15:10:02.178Z,3.08
2022-10-12T15:15:45.814Z,3.58
2022-10-12T15:20:49.832Z,3.13
2022-10-12T15:25:52.918Z,2.97
2022-10-12T15:36:16.404Z,4.18
2022-10-12T15:41:20.689Z,4.70
2022-10-12T15:46:22.463Z,4.15
2022-10-12T15:51:24.897Z,3.13
2022-10-12T15:56:26.665Z,3.08
2022-10-12T16:01:28.596Z,3.53
2022-10-12T16:06:31.839Z,3.30
2022-10-12T16:11:33.704Z,3.00
2022-10-12T16:16:35.563Z,3.65
2022-10-12T16:21:37.290Z,3.20
2022-10-12T16:26:44.105Z,2.97
2022-10-12T16:31:48.164Z,3.85
2022-10-12T16:36:49.865Z,3.83
2022-10-12T16:41:51.976Z,4.32
2022-10-12T16:46:53.705Z,4.57
2022-10-12T16:51:55.432Z,3.95
2022-10-12T16:56:57.524Z,3.95
2022-10-12T17:01:59.753Z,3.20
2022-10-12T17:07:01.581Z,3.85
2022-10-12T17:12:04.137Z,3.55
2022-10-12T17:17:05.967Z,3.70
2022-10-12T17:22:10.597Z,6.10
2022-10-12T17:27:14.609Z,5.32
2022-10-12T17:32:17.272Z,5.28
2022-10-12T17:37:20.121Z,5.13
2022-10-12T17:42:23.103Z,5.97
2022-10-12T17:47:24.906Z,5.95
2022-10-12T17:52:26.929Z,7.82
2022-10-12T17:57:28.657Z,8.27
2022-10-12T18:02:30.384Z,7.57
2022-10-12T18:07:32.139Z,6.00
2022-10-12T18:12:34.634Z,6.68
2022-10-12T18:17:37.096Z,7.55
2022-10-12T18:22:38.886Z,8.18
2022-10-12T18:27:40.897Z,8.35
2022-10-12T18:32:42.669Z,8.20
2022-10-12T18:37:45.251Z,8.50
2022-10-12T18:42:47.123Z,8.10
2022-10-12T18:47:49.415Z,9.27
2022-10-12T18:52:51.284Z,12.68
2022-10-12T18:57:53.250Z,10.05
2022-10-12T19:02:55.072Z,10.93
2022-10-12T19:07:56.999Z,10.60
2022-10-12T19:12:59.963Z,11.07
2022-10-12T19:18:02.044Z,20.73
2022-10-12T19:23:03.910Z,22.48
2022-10-12T19:28:05.846Z,20.55
2022-10-12T19:33:07.652Z,16.27
2022-10-12T19:38:09.874Z,14.85
2022-10-12T19:43:12.818Z,12.82
2022-10-12T19:48:14.710Z,11.23
2022-10-12T19:53:16.471Z,9.82
2022-10-12T19:58:18.402Z,10.80
2022-10-12T20:03:20.255Z,8.73
2022-10-12T20:08:22.539Z,8.40
2022-10-12T20:13:24.311Z,8.43
2022-10-12T20:18:27.341Z,8.63
2022-10-12T20:23:29.083Z,7.88
2022-10-12T20:28:30.849Z,8.48
2022-10-12T20:33:34.363Z,9.10
2022-10-12T20:38:39.863Z,8.65
2022-10-12T20:43:42.729Z,8.88
2022-10-12T20:48:45.898Z,8.75
2022-10-12T20:53:47.844Z,9.30
2022-10-12T20:58:49.573Z,9.63
2022-10-12T21:03:52.869Z,9.75
2022-10-12T21:08:57.320Z,9.43
2022-10-12T21:13:59.304Z,8.85
2022-10-12T21:19:01.087Z,9.43
2022-10-12T21:24:03.961Z,10.38
2022-10-12T21:29:06.142Z,10.73
2022-10-12T21:34:09.248Z,10.07
2022-10-12T21:39:16.231Z,11.02
2022-10-12T21:44:18.089Z,9.57
2022-10-12T21:49:19.882Z,10.35
2022-10-12T21:54:21.613Z,9.60
2022-10-12T21:59:23.324Z,8.65
2022-10-12T22:04:25.182Z,8.77
2022-10-12T22:09:26.917Z,8.98
2022-10-12T22:14:28.711Z,8.93
2022-10-12T22:19:31.058Z,8.82
2022-10-12T22:24:32.836Z,8.35
2022-10-12T22:29:35.209Z,9.20
2022-10-12T22:34:36.991Z,8.85
2022-10-12T22:39:38.767Z,9.80
2022-10-12T22:44:40.487Z,8.73
2022-10-12T22:49:42.202Z,8.20
2022-10-12T22:54:44.061Z,8.85
2022-10-12T22:59:45.811Z,7.53
2022-10-12T23:04:47.883Z,8.35
2022-10-12T23:09:49.846Z,7.85
2022-10-12T23:14:51.758Z,9.10
2022-10-12T23:19:53.644Z,9.60
2022-10-12T23:24:55.352Z,8.80
2022-10-12T23:29:57.142Z,8.45
2022-10-12T23:34:58.948Z,8.13
2022-10-12T23:40:00.688Z,7.95
2022-10-12T23:45:03.908Z,7.43
2022-10-12T23:50:05.883Z,9.00
2022-10-12T23:55:08.228Z,8.05
